Time;durP1;ratioP1;P1;durP2;ratioP2;P2;SDS_P1;SDS_P2;PMS_P1;PMS_P2;Temp;Humidity;BMP_temperature;BMP_pressure;BME280_temperature;BME280_humidity;BME280_pressure;Samples;Min_cycle;Max_cycle;Signal;HPM_P1;HPM_P2
2021/01/12 00:00:00;;;;;;;;;;;3.10;73.30;;;;;;4975038;28;20301;-77
2021/01/12 00:02:26;;;;;;;;;;;3.10;73.50;;;;;;4950334;28;19988;-77
2021/01/12 00:04:53;;;;;;;;;;;3.10;73.40;;;;;;4984767;28;20004;-78
2021/01/12 00:07:23;;;;;;;;;;;3.10;73.60;;;;;;4966534;28;20121;-78
2021/01/12 00:09:50;;;;;;;;;;;3.10;73.50;;;;;;4985488;28;20032;-77
2021/01/12 00:12:17;;;;;;;;;;;3.10;73.50;;;;;;4987069;28;19932;-77
2021/01/12 00:14:44;;;;;;;;;;;3.00;73.60;;;;;;4981526;28;19926;-78
2021/01/12 00:17:11;;;;;;;;;;;3.00;73.90;;;;;;4983126;28;19932;-77
2021/01/12 00:19:38;;;;;;;;;;;3.00;74.00;;;;;;4987312;28;19933;-78
2021/01/12 00:22:07;;;;;;;;;;;2.90;74.30;;;;;;4963150;28;19932;-78
2021/01/12 00:24:37;;;;;;;;;;;2.90;74.40;;;;;;4983242;28;19934;-77
2021/01/12 00:27:03;;;;;;;;;;;2.90;74.60;;;;;;4965473;28;19937;-78
2021/01/12 00:29:31;;;;;;;;;;;2.80;74.60;;;;;;4980219;28;19926;-78
2021/01/12 00:31:58;;;;;;;;;;;2.80;74.60;;;;;;4984938;28;19929;-77
2021/01/12 00:34:28;;;;;;;;;;;2.80;74.60;;;;;;4983375;28;19998;-77
2021/01/12 00:36:54;;;;;;;;;;;2.90;74.60;;;;;;4967991;28;20036;-78
2021/01/12 00:39:21;;;;;;;;;;;2.90;74.60;;;;;;4968734;28;19926;-78
2021/01/12 00:41:52;;;;;;;;;;;2.90;74.50;;;;;;4986566;28;20385;-78
2021/01/12 00:44:20;;;;;;;;;;;2.80;74.60;;;;;;4990478;28;20239;-78
2021/01/12 00:46:49;;;;;;;;;;;2.90;74.50;;;;;;4988463;28;19929;-78
2021/01/12 00:49:17;;;;;;;;;;;3.00;74.20;;;;;;4983159;28;19972;-78
2021/01/12 00:51:43;;;;;;;;;;;3.00;74.00;;;;;;4982169;28;19930;-77
2021/01/12 00:54:10;;;;;;;;;;;3.00;74.10;;;;;;4988969;28;20366;-78
2021/01/12 00:56:46;;;;;;;;;;;2.90;74.50;;;;;;4989055;28;19926;-78
2021/01/12 00:59:12;;;;;;;;;;;3.00;74.30;;;;;;4984858;28;20387;-78
2021/01/12 01:01:39;;;;;;;;;;;2.90;74.40;;;;;;4980383;28;19934;-78
2021/01/12 01:04:05;;;;;;;;;;;2.90;74.60;;;;;;4974237;28;19941;-78
2021/01/12 01:06:32;;;;;;;;;;;3.00;74.60;;;;;;4982173;28;19964;-78
2021/01/12 01:08:58;;;;;;;;;;;3.00;74.60;;;;;;4989841;28;19926;-78
2021/01/12 01:11:25;;;;;;;;;;;3.10;74.40;;;;;;4989064;28;19980;-78
2021/01/12 01:13:51;;;;;;;;;;;3.10;74.20;;;;;;4987700;28;19957;-78
2021/01/12 01:16:18;;;;;;;;;;;3.10;74.30;;;;;;4992029;28;19945;-78
2021/01/12 01:18:44;;;;;;;;;;;3.20;74.20;;;;;;4984004;28;19926;-78
2021/01/12 01:21:11;;;;;;;;;;;3.20;74.10;;;;;;4970218;28;20012;-78
2021/01/12 01:23:38;;;;;;;;;;;3.30;74.20;;;;;;4984499;28;19926;-77
2021/01/12 01:26:05;;;;;;;;;;;3.20;74.30;;;;;;4988604;28;19936;-77
2021/01/12 01:28:31;;;;;;;;;;;3.20;74.40;;;;;;4974486;28;19941;-77
2021/01/12 01:30:59;;;;;;;;;;;3.20;74.60;;;;;;4988472;28;19965;-77
2021/01/12 01:33:26;;;;;;;;;;;3.30;74.50;;;;;;4977236;28;19926;-78
2021/01/12 01:35:55;;;;;;;;;;;3.20;74.70;;;;;;4958784;28;19933;-77
2021/01/12 01:38:21;;;;;;;;;;;3.20;74.80;;;;;;4952853;28;19929;-78
2021/01/12 01:40:47;;;;;;;;;;;3.20;75.00;;;;;;4989033;28;21329;-77
2021/01/12 01:43:15;;;;;;;;;;;3.20;75.50;;;;;;4981863;28;19926;-77
2021/01/12 01:45:41;;;;;;;;;;;3.20;75.60;;;;;;4984467;28;19980;-78
2021/01/12 01:48:08;;;;;;;;;;;3.20;75.60;;;;;;4983603;28;19933;-78
2021/01/12 01:50:35;;;;;;;;;;;3.20;75.60;;;;;;4983557;28;20374;-77
2021/01/12 01:53:01;;;;;;;;;;;3.20;76.10;;;;;;4985010;28;19930;-78
2021/01/12 01:55:28;;;;;;;;;;;3.30;76.10;;;;;;4988376;28;19926;-77
2021/01/12 01:57:54;;;;;;;;;;;3.30;76.10;;;;;;4969594;28;20378;-77
2021/01/12 02:00:21;;;;;;;;;;;3.40;76.00;;;;;;4969331;28;19933;-78
2021/01/12 02:03:17;;;;;;;;;;;3.40;76.30;;;;;;4970299;28;19926;-77
2021/01/12 02:05:48;;;;;;;;;;;3.40;76.40;;;;;;4962084;28;20409;-78
2021/01/12 02:08:39;;;;;;;;;;;3.40;76.50;;;;;;4974365;28;19932;-78
2021/01/12 02:11:05;;;;;;;;;;;3.40;76.50;;;;;;4986467;28;19937;-78
2021/01/12 02:13:32;;;;;;;;;;;3.40;76.60;;;;;;4972772;28;20407;-78
2021/01/12 02:15:59;;;;;;;;;;;3.40;76.60;;;;;;4984069;28;19969;-78
2021/01/12 02:18:33;;;;;;;;;;;3.40;76.70;;;;;;4982445;28;19961;-78
2021/01/12 02:21:00;;;;;;;;;;;3.50;76.70;;;;;;4967781;28;19930;-78
2021/01/12 02:24:02;;;;;;;;;;;3.50;76.70;;;;;;4984042;28;19936;-78
2021/01/12 02:26:28;;;;;;;;;;;3.50;76.80;;;;;;4889867;29;19939;-78
2021/01/12 02:28:55;;;;;;;;;;;3.50;76.70;;;;;;4963065;28;19941;-77
2021/01/12 02:31:21;;;;;;;;;;;3.60;76.70;;;;;;4961817;28;21164;-78
2021/01/12 02:33:49;;;;;;;;;;;3.60;76.50;;;;;;4963479;28;20000;-78
2021/01/12 02:36:19;;;;;;;;;;;3.60;76.40;;;;;;4983870;28;19929;-78
2021/01/12 02:38:46;;;;;;;;;;;3.70;76.30;;;;;;4985664;28;19929;-77
2021/01/12 02:41:13;;;;;;;;;;;3.70;76.30;;;;;;4954100;28;19969;-77
2021/01/12 02:43:40;;;;;;;;;;;3.60;76.50;;;;;;4969270;28;20679;-78
2021/01/12 02:46:06;;;;;;;;;;;3.60;76.60;;;;;;4978481;28;19926;-78
2021/01/12 02:48:33;;;;;;;;;;;3.60;76.50;;;;;;4968296;28;19972;-78
2021/01/12 02:51:00;;;;;;;;;;;3.50;76.80;;;;;;4980006;28;20383;-78
2021/01/12 02:53:26;;;;;;;;;;;3.50;76.90;;;;;;4964766;28;19934;-78
2021/01/12 02:55:54;;;;;;;;;;;3.50;77.10;;;;;;4987496;28;19925;-78
2021/01/12 02:58:20;;;;;;;;;;;3.40;77.90;;;;;;4971340;28;19926;-78
2021/01/12 03:00:46;;;;;;;;;;;3.40;78.20;;;;;;4987316;28;20013;-78
2021/01/12 03:03:13;;;;;;;;;;;3.50;78.20;;;;;;4965851;28;20434;-78
2021/01/12 03:05:39;;;;;;;;;;;3.40;78.50;;;;;;4981250;28;19937;-78
2021/01/12 03:08:06;;;;;;;;;;;3.40;79.00;;;;;;4986166;28;19945;-78
2021/01/12 03:10:32;;;;;;;;;;;3.40;79.10;;;;;;4992538;28;20041;-78
2021/01/12 03:12:59;;;;;;;;;;;3.40;79.10;;;;;;5005930;28;19940;-78
2021/01/12 03:15:27;;;;;;;;;;;3.20;79.20;;;;;;4971493;28;19988;-77
2021/01/12 03:17:53;;;;;;;;;;;3.20;79.60;;;;;;4984051;28;20362;-78
2021/01/12 03:20:21;;;;;;;;;;;3.20;79.80;;;;;;4981744;28;19926;-78
2021/01/12 03:22:47;;;;;;;;;;;3.30;79.70;;;;;;4983335;28;20322;-78
2021/01/12 03:25:14;;;;;;;;;;;3.30;79.60;;;;;;4987599;28;19926;-78
2021/01/12 03:27:40;;;;;;;;;;;3.30;79.70;;;;;;4970700;28;19933;-77
2021/01/12 03:30:06;;;;;;;;;;;3.20;80.10;;;;;;4969721;28;20028;-79
2021/01/12 03:32:32;;;;;;;;;;;3.10;80.70;;;;;;4981304;28;19933;-77
2021/01/12 03:34:58;;;;;;;;;;;3.20;80.70;;;;;;4970312;28;20374;-77
2021/01/12 03:37:24;;;;;;;;;;;3.20;80.80;;;;;;4981827;28;19929;-78
2021/01/12 03:39:51;;;;;;;;;;;3.20;80.90;;;;;;4977467;28;20336;-78
2021/01/12 03:42:17;;;;;;;;;;;3.20;81.10;;;;;;4970840;28;19925;-78
2021/01/12 03:44:43;;;;;;;;;;;3.20;81.50;;;;;;4986967;28;19932;-78
2021/01/12 03:47:09;;;;;;;;;;;3.10;81.60;;;;;;4980558;28;19937;-78
2021/01/12 03:49:36;;;;;;;;;;;3.10;82.10;;;;;;4968328;28;19925;-78
2021/01/12 03:52:02;;;;;;;;;;;3.10;82.30;;;;;;4978553;28;19926;-78
2021/01/12 03:54:29;;;;;;;;;;;3.10;82.40;;;;;;4965748;28;20321;-78
2021/01/12 03:56:55;;;;;;;;;;;3.10;82.40;;;;;;4984005;28;19933;-78
2021/01/12 03:59:22;;;;;;;;;;;3.00;82.60;;;;;;4981608;28;20353;-78
2021/01/12 04:01:48;;;;;;;;;;;3.00;83.10;;;;;;4982127;28;20769;-78
2021/01/12 04:04:15;;;;;;;;;;;2.90;83.30;;;;;;4982427;28;19932;-78
2021/01/12 04:06:41;;;;;;;;;;;2.90;83.60;;;;;;4977634;28;19934;-78
2021/01/12 04:09:08;;;;;;;;;;;2.90;83.70;;;;;;4964404;28;19930;-78
2021/01/12 04:11:36;;;;;;;;;;;2.90;83.90;;;;;;4982291;28;19930;-78
2021/01/12 04:14:03;;;;;;;;;;;2.90;84.00;;;;;;4967760;28;19926;-78
2021/01/12 04:16:30;;;;;;;;;;;2.90;84.40;;;;;;4980920;28;19933;-78
2021/01/12 04:18:56;;;;;;;;;;;2.90;84.30;;;;;;4982314;28;19930;-78
2021/01/12 04:21:23;;;;;;;;;;;2.80;84.40;;;;;;4983577;28;19949;-78
2021/01/12 04:23:49;;;;;;;;;;;2.90;84.30;;;;;;4950704;28;19930;-79
2021/01/12 04:26:16;;;;;;;;;;;2.80;84.80;;;;;;4983062;28;19932;-78
2021/01/12 04:28:42;;;;;;;;;;;2.80;84.90;;;;;;4965957;28;19929;-78
2021/01/12 04:31:09;;;;;;;;;;;2.80;85.20;;;;;;4983744;28;20358;-78
2021/01/12 04:33:35;;;;;;;;;;;2.70;85.10;;;;;;4977845;28;19957;-78
2021/01/12 04:36:03;;;;;;;;;;;2.70;85.30;;;;;;4983872;28;19929;-79
2021/01/12 04:38:30;;;;;;;;;;;2.70;85.40;;;;;;4989689;28;20426;-78
2021/01/12 04:40:56;;;;;;;;;;;2.70;85.50;;;;;;4980281;28;19930;-78
2021/01/12 04:43:23;;;;;;;;;;;2.70;85.80;;;;;;4971885;28;19926;-78
2021/01/12 04:45:50;;;;;;;;;;;2.70;85.70;;;;;;4963717;28;19938;-78
2021/01/12 04:48:16;;;;;;;;;;;2.70;85.60;;;;;;4967937;28;20386;-78
2021/01/12 04:50:42;;;;;;;;;;;2.80;85.60;;;;;;4967453;28;19938;-78
2021/01/12 04:53:08;;;;;;;;;;;2.80;85.80;;;;;;4980691;28;19930;-78
2021/01/12 04:55:35;;;;;;;;;;;2.80;85.80;;;;;;4982992;28;19940;-78
2021/01/12 04:58:01;;;;;;;;;;;2.80;85.80;;;;;;4963324;28;20497;-78
2021/01/12 05:00:32;;;;;;;;;;;2.80;85.80;;;;;;4969612;28;20320;-78
2021/01/12 05:03:02;;;;;;;;;;;2.80;86.10;;;;;;4986642;28;19926;-78
2021/01/12 05:05:37;;;;;;;;;;;2.80;86.00;;;;;;4998116;28;19925;-78
2021/01/12 05:08:05;;;;;;;;;;;2.80;86.40;;;;;;4995325;28;19926;-78
2021/01/12 05:10:34;;;;;;;;;;;2.80;86.10;;;;;;4984019;28;20581;-78
2021/01/12 05:13:01;;;;;;;;;;;2.80;86.20;;;;;;4945114;28;19926;-78
2021/01/12 05:15:30;;;;;;;;;;;2.80;86.00;;;;;;4979562;28;19932;-78
2021/01/12 05:17:57;;;;;;;;;;;2.90;86.10;;;;;;4974562;28;19941;-78
2021/01/12 05:20:27;;;;;;;;;;;2.90;86.00;;;;;;4980229;28;19927;-77
2021/01/12 05:23:06;;;;;;;;;;;2.90;85.80;;;;;;4980534;28;19936;-78
2021/01/12 05:25:44;;;;;;;;;;;2.80;86.00;;;;;;4989453;28;19926;-78
2021/01/12 05:28:11;;;;;;;;;;;2.80;86.10;;;;;;4987306;28;20012;-78
2021/01/12 05:30:38;;;;;;;;;;;2.80;86.20;;;;;;4987576;28;20557;-78
2021/01/12 05:33:06;;;;;;;;;;;2.90;85.90;;;;;;4982639;28;20387;-78
2021/01/12 05:35:35;;;;;;;;;;;2.80;85.90;;;;;;4984959;28;20287;-78
2021/01/12 05:38:03;;;;;;;;;;;2.80;86.10;;;;;;4984349;28;20428;-78
2021/01/12 05:40:31;;;;;;;;;;;2.70;86.70;;;;;;4985289;28;20302;-78
2021/01/12 05:43:13;;;;;;;;;;;2.70;86.80;;;;;;4985392;28;19933;-78
2021/01/12 05:45:41;;;;;;;;;;;2.80;86.70;;;;;;4986134;28;19930;-79
2021/01/12 05:48:08;;;;;;;;;;;2.80;86.60;;;;;;4980761;28;19926;-78
2021/01/12 05:50:38;;;;;;;;;;;2.80;86.50;;;;;;4981074;28;19966;-78
2021/01/12 05:53:05;;;;;;;;;;;2.80;86.50;;;;;;4985635;28;19925;-78
2021/01/12 05:55:37;;;;;;;;;;;2.90;86.60;;;;;;4982094;28;19936;-77
2021/01/12 05:58:17;;;;;;;;;;;2.90;86.30;;;;;;4969019;28;19936;-79
2021/01/12 06:00:46;;;;;;;;;;;2.90;86.20;;;;;;4982767;28;19932;-79
2021/01/12 06:03:13;;;;;;;;;;;2.90;86.30;;;;;;4986122;28;19931;-77
2021/01/12 06:05:43;;;;;;;;;;;2.80;86.50;;;;;;4984991;28;19976;-77
2021/01/12 06:08:10;;;;;;;;;;;2.80;86.60;;;;;;4966786;28;19926;-77
2021/01/12 06:10:38;;;;;;;;;;;2.80;86.80;;;;;;4983823;28;19932;-78
2021/01/12 06:13:16;;;;;;;;;;;2.80;86.80;;;;;;4987077;28;19976;-78
2021/01/12 06:15:47;;;;;;;;;;;2.80;87.00;;;;;;4961524;28;19933;-78
2021/01/12 06:18:14;;;;;;;;;;;2.80;87.40;;;;;;4965453;28;19926;-77
2021/01/12 06:21:05;;;;;;;;;;;2.80;87.40;;;;;;4986699;28;19934;-78
2021/01/12 06:23:42;;;;;;;;;;;2.80;87.40;;;;;;4984385;28;19936;-78
2021/01/12 06:26:08;;;;;;;;;;;2.80;87.50;;;;;;4980227;28;19926;-77
2021/01/12 06:28:35;;;;;;;;;;;2.80;87.70;;;;;;4967512;28;19929;-77
2021/01/12 06:31:04;;;;;;;;;;;2.80;87.60;;;;;;4969960;28;19930;-78
2021/01/12 06:33:31;;;;;;;;;;;2.80;87.70;;;;;;4985617;28;19945;-78
2021/01/12 06:36:00;;;;;;;;;;;2.80;87.80;;;;;;4987641;28;19961;-78
2021/01/12 06:38:27;;;;;;;;;;;2.90;87.80;;;;;;4981941;28;19936;-77
2021/01/12 06:40:56;;;;;;;;;;;2.90;87.90;;;;;;4986688;28;20254;-78
2021/01/12 06:43:28;;;;;;;;;;;2.90;87.50;;;;;;4987494;28;19933;-77
2021/01/12 06:45:54;;;;;;;;;;;3.00;87.60;;;;;;4986594;28;20020;-78
2021/01/12 06:48:21;;;;;;;;;;;3.00;87.50;;;;;;4982402;28;20440;-77
2021/01/12 06:50:48;;;;;;;;;;;3.10;87.20;;;;;;4984212;28;19930;-77
2021/01/12 06:53:14;;;;;;;;;;;3.10;87.00;;;;;;4975652;28;19926;-77
2021/01/12 06:55:41;;;;;;;;;;;3.10;87.10;;;;;;4986853;28;19932;-78
2021/01/12 06:58:08;;;;;;;;;;;3.10;87.30;;;;;;5005042;28;19914;-77
2021/01/12 07:00:36;;;;;;;;;;;3.10;87.20;;;;;;4989855;28;19930;-77
2021/01/12 07:03:02;;;;;;;;;;;3.10;87.20;;;;;;4982781;28;20380;-77
2021/01/12 07:05:36;;;;;;;;;;;3.10;87.10;;;;;;4986287;28;19925;-78
2021/01/12 07:08:06;;;;;;;;;;;3.10;87.10;;;;;;4975745;28;19932;-78
2021/01/12 07:10:38;;;;;;;;;;;3.10;87.00;;;;;;4983884;28;20275;-78
2021/01/12 07:13:06;;;;;;;;;;;3.10;86.90;;;;;;4979204;28;20016;-77
2021/01/12 07:15:40;;;;;;;;;;;3.10;87.20;;;;;;4984416;28;19973;-78
2021/01/12 07:18:06;;;;;;;;;;;3.10;87.00;;;;;;4974914;28;19926;-78
2021/01/12 07:20:35;;;;;;;;;;;3.10;86.90;;;;;;4987192;28;19929;-78
2021/01/12 07:23:05;;;;;;;;;;;3.10;87.30;;;;;;4977680;28;20401;-78
2021/01/12 07:25:35;;;;;;;;;;;3.10;87.10;;;;;;4985142;28;19982;-78
2021/01/12 07:28:13;;;;;;;;;;;3.00;87.30;;;;;;4982333;28;20347;-78
2021/01/12 07:30:41;;;;;;;;;;;3.10;87.40;;;;;;4982783;28;20370;-78
2021/01/12 07:33:08;;;;;;;;;;;3.10;87.40;;;;;;4971707;28;19933;-78
2021/01/12 07:35:35;;;;;;;;;;;3.10;87.20;;;;;;4979937;28;20375;-79
2021/01/12 07:38:02;;;;;;;;;;;3.10;87.30;;;;;;4985737;28;19926;-78
2021/01/12 07:40:29;;;;;;;;;;;3.20;87.20;;;;;;4982602;28;19932;-77
2021/01/12 07:42:56;;;;;;;;;;;3.20;87.00;;;;;;4982102;28;19957;-78
2021/01/12 07:45:24;;;;;;;;;;;3.20;87.10;;;;;;4982292;28;19961;-78
2021/01/12 07:47:55;;;;;;;;;;;3.20;87.00;;;;;;4969926;28;19926;-77
2021/01/12 07:50:22;;;;;;;;;;;3.10;87.20;;;;;;4978234;28;19926;-77
2021/01/12 07:52:49;;;;;;;;;;;3.20;87.30;;;;;;4979326;28;19969;-77
2021/01/12 07:55:15;;;;;;;;;;;3.30;87.00;;;;;;4983589;28;19926;-78
2021/01/12 07:57:42;;;;;;;;;;;3.30;86.60;;;;;;4978951;28;19933;-77
2021/01/12 08:00:10;;;;;;;;;;;3.30;86.60;;;;;;4981302;28;19933;-77
2021/01/12 08:02:40;;;;;;;;;;;3.30;86.50;;;;;;4981853;28;19933;-77
2021/01/12 08:05:08;;;;;;;;;;;3.20;86.20;;;;;;4984083;28;20008;-77
2021/01/12 08:07:34;;;;;;;;;;;3.20;86.40;;;;;;4978628;28;19937;-77
2021/01/12 08:10:01;;;;;;;;;;;3.20;86.70;;;;;;4988128;28;19953;-77
2021/01/12 08:12:27;;;;;;;;;;;3.20;86.80;;;;;;4962620;28;19929;-77
2021/01/12 08:14:54;;;;;;;;;;;3.20;86.70;;;;;;4951582;28;19937;-77
2021/01/12 08:17:22;;;;;;;;;;;3.10;87.00;;;;;;4988957;28;19948;-77
2021/01/12 08:19:48;;;;;;;;;;;3.10;87.00;;;;;;4985793;28;19930;-78
2021/01/12 08:22:17;;;;;;;;;;;3.10;87.20;;;;;;4982392;28;19926;-77
2021/01/12 08:24:47;;;;;;;;;;;3.10;87.30;;;;;;4985186;28;19934;-77
2021/01/12 08:27:17;;;;;;;;;;;3.10;87.50;;;;;;4977357;28;19978;-76
2021/01/12 08:29:43;;;;;;;;;;;3.10;87.70;;;;;;4982510;28;20347;-76
2021/01/12 08:32:11;;;;;;;;;;;3.10;87.80;;;;;;4963769;28;19926;-76
2021/01/12 08:34:49;;;;;;;;;;;3.10;87.80;;;;;;4961694;28;19949;-77
2021/01/12 08:37:16;;;;;;;;;;;3.20;87.70;;;;;;4986504;28;19925;-76
2021/01/12 08:39:43;;;;;;;;;;;3.20;87.50;;;;;;4981153;28;20017;-75
2021/01/12 08:42:10;;;;;;;;;;;3.20;87.40;;;;;;4978769;28;19930;-76
2021/01/12 08:44:40;;;;;;;;;;;3.20;87.40;;;;;;4988473;28;20188;-76
2021/01/12 08:47:06;;;;;;;;;;;3.30;87.50;;;;;;4985862;28;19932;-76
2021/01/12 08:49:33;;;;;;;;;;;3.30;87.20;;;;;;4999966;28;19927;-77
2021/01/12 08:52:00;;;;;;;;;;;3.30;87.20;;;;;;4996775;28;20020;-77
2021/01/12 08:54:27;;;;;;;;;;;3.30;87.30;;;;;;4964676;28;19949;-77
2021/01/12 08:57:01;;;;;;;;;;;3.40;87.00;;;;;;4982489;28;19936;-77
2021/01/12 08:59:29;;;;;;;;;;;3.40;86.80;;;;;;4978482;28;19932;-77
2021/01/12 09:01:56;;;;;;;;;;;3.40;87.00;;;;;;4984243;28;19934;-77
2021/01/12 09:04:23;;;;;;;;;;;3.40;87.00;;;;;;4988892;28;20309;-77
2021/01/12 09:07:06;;;;;;;;;;;3.50;87.00;;;;;;4986992;28;20445;-77
2021/01/12 09:09:34;;;;;;;;;;;3.50;86.80;;;;;;4985804;28;19962;-75
2021/01/12 09:12:10;;;;;;;;;;;3.50;86.80;;;;;;4970959;28;19926;-76
2021/01/12 09:14:44;;;;;;;;;;;3.50;86.90;;;;;;4984443;28;19932;-76
2021/01/12 09:17:14;;;;;;;;;;;3.60;86.70;;;;;;4987081;28;19932;-76
2021/01/12 09:19:44;;;;;;;;;;;3.60;86.50;;;;;;4970842;28;20020;-76
2021/01/12 09:22:17;;;;;;;;;;;3.60;86.30;;;;;;4968114;28;19932;-76
2021/01/12 09:24:50;;;;;;;;;;;3.50;86.20;;;;;;4986320;28;19932;-77
2021/01/12 09:27:24;;;;;;;;;;;3.60;86.40;;;;;;4967121;28;19933;-76
2021/01/12 09:29:50;;;;;;;;;;;3.70;86.30;;;;;;4979985;28;19933;-76
2021/01/12 09:32:27;;;;;;;;;;;3.70;85.90;;;;;;4971604;28;19969;-76
2021/01/12 09:34:53;;;;;;;;;;;3.70;86.00;;;;;;4968726;28;19981;-76
2021/01/12 09:37:19;;;;;;;;;;;3.70;86.00;;;;;;4989791;28;20321;-76
2021/01/12 09:39:55;;;;;;;;;;;3.70;85.50;;;;;;4984455;28;20366;-77
2021/01/12 09:42:24;;;;;;;;;;;3.70;85.50;;;;;;4974592;28;21076;-77
2021/01/12 09:45:06;;;;;;;;;;;3.70;85.90;;;;;;4984367;28;19926;-77
2021/01/12 09:47:36;;;;;;;;;;;3.80;85.80;;;;;;4974086;28;19942;-77
2021/01/12 09:50:04;;;;;;;;;;;3.80;85.80;;;;;;4980846;28;20388;-77
2021/01/12 09:52:30;;;;;;;;;;;3.90;85.80;;;;;;4988578;28;19930;-77
2021/01/12 09:54:56;;;;;;;;;;;3.90;85.60;;;;;;4989480;28;19932;-77
2021/01/12 09:57:22;;;;;;;;;;;3.90;85.20;;;;;;4976969;28;20161;-78
2021/01/12 09:59:48;;;;;;;;;;;4.00;84.90;;;;;;4986870;28;19926;-77
2021/01/12 10:02:15;;;;;;;;;;;4.10;84.70;;;;;;4974568;28;19957;-77
2021/01/12 10:04:43;;;;;;;;;;;4.20;84.60;;;;;;4990144;28;19925;-77
2021/01/12 10:07:09;;;;;;;;;;;4.20;84.50;;;;;;4983076;28;19925;-77
2021/01/12 10:09:37;;;;;;;;;;;4.20;84.50;;;;;;4989293;28;19984;-76
2021/01/12 10:12:04;;;;;;;;;;;4.20;84.60;;;;;;4970233;28;20024;-76
2021/01/12 10:14:30;;;;;;;;;;;4.20;84.10;;;;;;4965334;28;20012;-76
2021/01/12 10:16:57;;;;;;;;;;;4.30;84.30;;;;;;4982100;28;19930;-77
2021/01/12 10:19:23;;;;;;;;;;;4.30;84.10;;;;;;4982901;28;20040;-77
2021/01/12 10:21:50;;;;;;;;;;;4.30;84.20;;;;;;4969785;28;19933;-76
2021/01/12 10:24:17;;;;;;;;;;;4.30;84.10;;;;;;4967273;28;19930;-76
2021/01/12 10:26:44;;;;;;;;;;;4.30;83.80;;;;;;4984655;28;19976;-76
2021/01/12 10:29:11;;;;;;;;;;;4.40;84.00;;;;;;4970914;28;19964;-76
2021/01/12 10:31:43;;;;;;;;;;;4.40;83.70;;;;;;4988005;28;19934;-76
2021/01/12 10:34:09;;;;;;;;;;;4.40;83.70;;;;;;4987704;28;20345;-77
2021/01/12 10:36:35;;;;;;;;;;;4.40;83.70;;;;;;4971011;28;19934;-76
2021/01/12 10:39:02;;;;;;;;;;;4.50;83.80;;;;;;4970595;28;19926;-76
2021/01/12 10:41:28;;;;;;;;;;;4.50;83.80;;;;;;4981547;28;19936;-76
2021/01/12 10:43:55;;;;;;;;;;;4.50;84.30;;;;;;4991727;28;19953;-76
2021/01/12 10:46:21;;;;;;;;;;;4.50;84.20;;;;;;5001789;28;19926;-76
2021/01/12 10:48:49;;;;;;;;;;;4.60;83.90;;;;;;4993249;28;19930;-75
2021/01/12 10:51:19;;;;;;;;;;;4.60;84.10;;;;;;4985033;28;19973;-77
2021/01/12 10:53:45;;;;;;;;;;;4.60;83.70;;;;;;4989867;28;20603;-78
2021/01/12 10:56:18;;;;;;;;;;;4.50;84.00;;;;;;4965246;28;19969;-76
2021/01/12 10:58:44;;;;;;;;;;;4.60;84.40;;;;;;4983660;28;20017;-76
2021/01/12 11:01:14;;;;;;;;;;;4.60;84.60;;;;;;4968968;28;19976;-76
2021/01/12 11:03:41;;;;;;;;;;;4.60;84.10;;;;;;4981339;28;19936;-77
2021/01/12 11:06:08;;;;;;;;;;;4.60;84.00;;;;;;4984238;28;19930;-76
2021/01/12 11:08:34;;;;;;;;;;;4.60;83.70;;;;;;4973326;28;19937;-76
2021/01/12 11:11:03;;;;;;;;;;;4.50;84.30;;;;;;4986274;28;20397;-76
2021/01/12 11:13:29;;;;;;;;;;;4.50;84.40;;;;;;4980767;28;19974;-76
2021/01/12 11:15:56;;;;;;;;;;;4.50;84.90;;;;;;4968328;28;19926;-76
2021/01/12 11:18:24;;;;;;;;;;;4.40;84.80;;;;;;4986405;28;19936;-76
2021/01/12 11:20:54;;;;;;;;;;;4.50;84.80;;;;;;4986032;28;19934;-76
2021/01/12 11:23:20;;;;;;;;;;;4.50;84.90;;;;;;4980222;28;19940;-76
2021/01/12 11:25:46;;;;;;;;;;;4.50;84.60;;;;;;4963292;28;19934;-76
2021/01/12 11:28:13;;;;;;;;;;;4.60;84.50;;;;;;4967169;28;19961;-76
2021/01/12 11:30:41;;;;;;;;;;;4.60;84.40;;;;;;4984558;28;19936;-77
2021/01/12 11:33:10;;;;;;;;;;;4.60;84.10;;;;;;4969403;28;19986;-77
2021/01/12 11:35:36;;;;;;;;;;;4.60;84.30;;;;;;4980856;28;20017;-78
2021/01/12 11:38:02;;;;;;;;;;;4.70;84.30;;;;;;4987082;28;20466;-77
2021/01/12 11:40:28;;;;;;;;;;;4.70;84.30;;;;;;4987692;28;19926;-77
2021/01/12 11:42:55;;;;;;;;;;;4.70;84.60;;;;;;4968975;28;19941;-77
2021/01/12 11:45:21;;;;;;;;;;;4.70;84.40;;;;;;4985488;28;20343;-77
2021/01/12 11:47:47;;;;;;;;;;;4.70;84.70;;;;;;4986826;28;19941;-77
2021/01/12 11:50:14;;;;;;;;;;;4.80;84.10;;;;;;4987395;28;19953;-77
2021/01/12 11:52:41;;;;;;;;;;;4.80;84.20;;;;;;4967204;28;19925;-77
2021/01/12 11:55:07;;;;;;;;;;;4.80;84.40;;;;;;4969161;28;20263;-77
2021/01/12 11:57:34;;;;;;;;;;;4.90;84.40;;;;;;4983392;28;20530;-77
2021/01/12 12:00:00;;;;;;;;;;;4.80;83.70;;;;;;4983039;28;19932;-77
2021/01/12 12:02:29;;;;;;;;;;;4.90;83.80;;;;;;4970237;28;19930;-77
2021/01/12 12:04:55;;;;;;;;;;;4.90;83.70;;;;;;4970687;28;19925;-77
2021/01/12 12:07:21;;;;;;;;;;;4.90;83.70;;;;;;4950125;28;20009;-77
2021/01/12 12:09:48;;;;;;;;;;;5.00;83.90;;;;;;4974974;28;19926;-77
2021/01/12 12:12:14;;;;;;;;;;;5.00;83.90;;;;;;4978949;28;19930;-78
2021/01/12 12:14:41;;;;;;;;;;;5.10;83.80;;;;;;4980752;28;19961;-77
2021/01/12 12:17:08;;;;;;;;;;;5.10;83.10;;;;;;4984648;28;19926;-77
2021/01/12 12:19:37;;;;;;;;;;;5.20;82.40;;;;;;4969855;28;20018;-77
2021/01/12 12:22:05;;;;;;;;;;;5.20;82.20;;;;;;4983256;28;20364;-79
2021/01/12 12:24:31;;;;;;;;;;;5.20;82.40;;;;;;4964193;28;19938;-76
2021/01/12 12:26:58;;;;;;;;;;;5.20;82.30;;;;;;4964770;28;19930;-76
2021/01/12 12:29:28;;;;;;;;;;;5.20;81.90;;;;;;4981467;28;19926;-76
2021/01/12 12:31:56;;;;;;;;;;;5.20;82.10;;;;;;4981685;28;19926;-77
2021/01/12 12:34:23;;;;;;;;;;;5.20;82.10;;;;;;4964125;28;20400;-76
2021/01/12 12:36:51;;;;;;;;;;;5.20;82.90;;;;;;4985577;28;19930;-76
2021/01/12 12:39:17;;;;;;;;;;;5.20;82.50;;;;;;4972408;28;19933;-76
2021/01/12 12:41:44;;;;;;;;;;;5.20;82.70;;;;;;4980230;28;20282;-76
2021/01/12 12:44:12;;;;;;;;;;;5.30;82.50;;;;;;4991461;28;20378;-78
2021/01/12 12:46:38;;;;;;;;;;;5.30;81.70;;;;;;4987162;28;19933;-78
2021/01/12 12:49:04;;;;;;;;;;;5.30;82.00;;;;;;4984287;28;19934;-77
2021/01/12 12:51:31;;;;;;;;;;;5.40;81.40;;;;;;4994778;28;19936;-77
2021/01/12 12:53:58;;;;;;;;;;;5.30;81.60;;;;;;4986669;28;19926;-77
2021/01/12 12:56:24;;;;;;;;;;;5.30;81.80;;;;;;4980091;28;19936;-77
2021/01/12 12:58:51;;;;;;;;;;;5.30;81.50;;;;;;4988685;28;19932;-77
2021/01/12 13:01:17;;;;;;;;;;;5.30;81.40;;;;;;4980709;28;19930;-77
2021/01/12 13:03:43;;;;;;;;;;;5.30;81.20;;;;;;4983667;28;19926;-77
2021/01/12 13:06:11;;;;;;;;;;;5.30;81.20;;;;;;4971090;28;20001;-77
2021/01/12 13:08:38;;;;;;;;;;;5.20;81.50;;;;;;4971050;28;19932;-77
2021/01/12 13:11:04;;;;;;;;;;;5.20;82.00;;;;;;4972730;28;19936;-77
2021/01/12 13:13:31;;;;;;;;;;;5.30;81.90;;;;;;4987865;28;19930;-77
2021/01/12 13:15:57;;;;;;;;;;;5.20;82.20;;;;;;4987743;28;19926;-77
2021/01/12 13:18:28;;;;;;;;;;;5.30;82.70;;;;;;4984024;28;20040;-76
2021/01/12 13:20:58;;;;;;;;;;;5.30;83.20;;;;;;4990362;28;19965;-77
2021/01/12 13:23:25;;;;;;;;;;;5.20;83.70;;;;;;4984973;28;19988;-76
2021/01/12 13:25:52;;;;;;;;;;;5.20;84.40;;;;;;4986562;28;19932;-77
2021/01/12 13:28:18;;;;;;;;;;;5.20;84.80;;;;;;4984604;28;19952;-76
2021/01/12 13:30:45;;;;;;;;;;;5.20;85.10;;;;;;4990166;28;19934;-76
2021/01/12 13:33:14;;;;;;;;;;;5.20;85.30;;;;;;4986073;28;20377;-76
2021/01/12 13:35:42;;;;;;;;;;;5.30;85.30;;;;;;4981537;28;19926;-76
2021/01/12 13:38:08;;;;;;;;;;;5.20;85.40;;;;;;4984811;28;19936;-76
2021/01/12 13:40:34;;;;;;;;;;;5.20;85.40;;;;;;4988133;28;19926;-76
2021/01/12 13:43:00;;;;;;;;;;;5.20;85.60;;;;;;4987906;28;19937;-76
2021/01/12 13:45:27;;;;;;;;;;;5.10;85.70;;;;;;4971564;28;19971;-76
2021/01/12 13:47:54;;;;;;;;;;;5.20;85.50;;;;;;4984966;28;20459;-76
2021/01/12 13:50:21;;;;;;;;;;;5.20;85.60;;;;;;4985708;28;20357;-77
2021/01/12 13:52:48;;;;;;;;;;;5.20;85.50;;;;;;4985361;28;19925;-76
2021/01/12 13:55:15;;;;;;;;;;;5.10;85.40;;;;;;4983669;28;19926;-77
2021/01/12 13:57:48;;;;;;;;;;;5.10;85.60;;;;;;4969432;28;19951;-76
2021/01/12 14:00:17;;;;;;;;;;;5.10;85.20;;;;;;4967987;28;19929;-76
2021/01/12 14:02:43;;;;;;;;;;;5.10;85.60;;;;;;4986212;28;19941;-76
2021/01/12 14:05:10;;;;;;;;;;;5.10;85.60;;;;;;4973502;28;19930;-77
2021/01/12 14:07:36;;;;;;;;;;;5.10;85.40;;;;;;4968942;28;19937;-77
2021/01/12 14:10:03;;;;;;;;;;;5.10;85.10;;;;;;4985915;28;20129;-76
2021/01/12 14:12:30;;;;;;;;;;;5.10;85.20;;;;;;4965175;28;19930;-76
2021/01/12 14:14:57;;;;;;;;;;;5.10;85.40;;;;;;4982936;28;19934;-76
2021/01/12 14:17:23;;;;;;;;;;;5.10;85.50;;;;;;4978052;28;19929;-77
2021/01/12 14:20:08;;;;;;;;;;;5.10;85.80;;;;;;4991132;28;19940;-77
2021/01/12 14:22:36;;;;;;;;;;;5.20;85.80;;;;;;4983357;28;19941;-77
2021/01/12 14:25:02;;;;;;;;;;;5.20;85.80;;;;;;4983721;28;19934;-77
2021/01/12 14:27:29;;;;;;;;;;;5.20;86.00;;;;;;4987059;28;19947;-77
2021/01/12 14:29:59;;;;;;;;;;;5.30;85.90;;;;;;4986202;28;20017;-77
2021/01/12 14:32:25;;;;;;;;;;;5.30;85.90;;;;;;4970893;28;20017;-77
2021/01/12 14:34:54;;;;;;;;;;;5.40;85.80;;;;;;4984412;28;19933;-77